UACP

Details ICAO UACP (PPK)
Name Petropavlovsk
Region Kazakhstan and Kyrgyzstan
Timezone Asia/Almaty (UTC+6.0)
Plans Departing 56
Arriving 85
Stats Elevation 458 ft / 140 m (AMSL)
Location 54.775500° 69.186100°
Runways 1
Magnetic Variation 13.037° E
Sunrise 2024-03-04 02:06:56 UTC / 2024-03-04 08:06:56 Local
Sunset 2024-03-04 13:05:55 UTC / 2024-03-04 19:05:55 Local
Advertisement - Login to hide

Runways

ID Width Length Bearing (true/mag) Surface Threshold Overrun Markings Lighting
05 148 ft / 45 m 9,171 ft / 2,795 m 65.47° / 52.44° ASPHALT 0 ft / 0 m 197 ft / 60 m PREC-APP CENTERLINE EDGE THRESHOLD SALS
23 148 ft / 45 m 9,171 ft / 2,795 m 245.50° / 232.47° ASPHALT 0 ft / 0 m 197 ft / 60 m PREC-APP CENTERLINE EDGE THRESHOLD ALSF-I

Approach Navaids

Runway Type Ident Frequency Range Bearing (true/mag) Slope Elevation
23 LOC-ILS IPT 108.30 MHz 18 nm / 33 km 245.49° / 232.45° - 459 ft / 140 m (AMSL)
23 GS IPT 108.30 MHz 10 nm / 19 km 245.49° / 232.45° 3.00° 459 ft / 140 m (AMSL)

Map

Weather


0- 5 10 15 20 25 30 35+ Temperature / °C

Clouds and Precipitation
Forecast for 2024-03-04 06:00 UTC. Updated 5 hours ago

Ground ~20,000 ft ~40,000 ft Winds

METAR

UACP 040800Z 24005MPS 9999 OVC031 M00/M03 Q1020 NOSIG RMK QFE752/1003

TAF

Not found

Frequencies

Tower 123.70 MHz Petropavlovsk Tower
Warning: Do not use this data for real-world aviation or navigation. No guarantee of current accuracy is given.